createdAt,value
2022-09-11T00:00:55.787Z,15.10
2022-09-11T00:03:25.624Z,12.83
2022-09-11T00:05:54.075Z,11.23
2022-09-11T00:08:22.715Z,12.70
2022-09-11T00:10:51.215Z,13.97
2022-09-11T00:13:21.491Z,11.37
2022-09-11T00:15:51.360Z,11.73
2022-09-11T00:18:21.785Z,10.80
2022-09-11T00:20:52.503Z,9.60
2022-09-11T00:23:21.469Z,10.87
2022-09-11T00:25:50.073Z,16.17
2022-09-11T00:28:20.302Z,12.60
2022-09-11T00:30:48.925Z,15.37
2022-09-11T00:33:17.503Z,10.53
2022-09-11T00:35:45.945Z,9.93
2022-09-11T00:38:17.407Z,12.50
2022-09-11T00:40:47.456Z,12.77
2022-09-11T00:43:17.682Z,12.50
2022-09-11T00:45:46.510Z,16.30
2022-09-11T00:48:15.567Z,10.33
2022-09-11T00:50:44.674Z,12.70
2022-09-11T00:53:13.864Z,11.00
2022-09-11T00:55:44.879Z,11.23
2022-09-11T00:58:15.969Z,10.53
2022-09-11T01:00:45.536Z,11.27
2022-09-11T01:03:14.328Z,9.67
2022-09-11T01:05:44.445Z,9.50
2022-09-11T01:08:13.009Z,10.03
2022-09-11T01:10:47.270Z,10.13
2022-09-11T01:13:18.472Z,11.90
2022-09-11T01:15:50.159Z,9.13
2022-09-11T01:18:22.421Z,12.03
2022-09-11T01:21:03.112Z,11.30
2022-09-11T01:24:02.279Z,10.43
2022-09-11T01:26:55.544Z,12.40
2022-09-11T01:29:27.817Z,10.37
2022-09-11T01:31:58.432Z,9.13
2022-09-11T01:34:29.880Z,10.53
2022-09-11T01:37:01.890Z,10.70
2022-09-11T01:39:33.899Z,12.43
2022-09-11T01:42:03.719Z,13.53
2022-09-11T01:44:35.118Z,11.33
2022-09-11T01:47:04.033Z,11.50
2022-09-11T01:49:35.290Z,19.90
2022-09-11T01:52:06.356Z,9.30
2022-09-11T01:54:35.544Z,11.97
2022-09-11T01:57:05.222Z,14.27
2022-09-11T01:59:37.062Z,12.40
2022-09-11T02:02:07.753Z,10.20
2022-09-11T02:04:38.931Z,12.53
2022-09-11T02:07:09.751Z,8.17
2022-09-11T02:09:41.247Z,14.27
2022-09-11T02:12:11.183Z,16.23
2022-09-11T02:14:42.492Z,13.23
2022-09-11T02:17:14.536Z,14.67
2022-09-11T02:19:43.219Z,13.33
2022-09-11T02:22:11.649Z,12.50
2022-09-11T02:24:40.266Z,12.27
2022-09-11T02:27:09.584Z,11.80
2022-09-11T02:29:39.326Z,13.97
2022-09-11T02:32:11.219Z,10.63
2022-09-11T02:34:40.188Z,11.00
2022-09-11T02:37:15.385Z,13.43
2022-09-11T02:40:03.162Z,13.60
2022-09-11T02:42:36.667Z,11.03
2022-09-11T02:45:10.827Z,12.20
2022-09-11T02:47:45.073Z,15.63
2022-09-11T02:50:18.515Z,16.03
2022-09-11T02:52:49.427Z,12.57
2022-09-11T02:55:20.543Z,15.37
2022-09-11T02:57:52.956Z,13.40
2022-09-11T03:00:21.501Z,13.10
2022-09-11T03:02:53.583Z,15.00
2022-09-11T03:05:23.183Z,15.60
2022-09-11T03:07:51.924Z,15.17
2022-09-11T03:10:20.391Z,17.77
2022-09-11T03:12:48.895Z,15.63
2022-09-11T03:15:17.577Z,19.37
2022-09-11T03:17:46.037Z,20.00
2022-09-11T03:20:15.968Z,19.70
2022-09-11T03:22:44.383Z,22.53
2022-09-11T03:25:12.904Z,20.67
2022-09-11T03:27:42.165Z,22.70
2022-09-11T03:30:11.414Z,25.90
2022-09-11T03:32:39.861Z,21.07
2022-09-11T03:35:08.951Z,20.63
2022-09-11T03:37:38.768Z,25.80
2022-09-11T03:40:08.477Z,25.30
2022-09-11T03:42:36.970Z,23.93
2022-09-11T03:45:06.019Z,24.10
2022-09-11T03:47:34.498Z,23.60
2022-09-11T03:50:03.074Z,28.13
2022-09-11T03:52:31.495Z,23.60
2022-09-11T03:55:01.363Z,22.60
2022-09-11T03:57:29.912Z,28.60
2022-09-11T03:59:58.409Z,26.03
2022-09-11T04:02:26.915Z,23.40
2022-09-11T04:04:55.392Z,27.03
2022-09-11T04:07:23.880Z,23.47
2022-09-11T04:09:52.329Z,21.70
2022-09-11T04:12:22.139Z,24.97
2022-09-11T04:14:50.770Z,24.00
2022-09-11T04:17:20.029Z,25.03
2022-09-11T04:19:48.547Z,24.43
2022-09-11T04:22:17.062Z,20.13
2022-09-11T04:24:45.507Z,22.30
2022-09-11T04:27:13.934Z,21.50
2022-09-11T04:29:43.841Z,23.37
2022-09-11T04:32:13.256Z,21.03
2022-09-11T04:34:42.816Z,16.57
2022-09-11T04:37:11.585Z,17.40
2022-09-11T04:39:40.093Z,21.60
2022-09-11T04:42:10.484Z,23.33
2022-09-11T04:44:39.162Z,20.90
2022-09-11T04:47:09.024Z,21.80
2022-09-11T04:49:37.497Z,20.40
2022-09-11T04:52:07.319Z,19.57
2022-09-11T04:54:36.950Z,26.07
2022-09-11T04:57:05.819Z,26.37
2022-09-11T04:59:34.372Z,20.37
2022-09-11T05:02:03.641Z,19.70
2022-09-11T05:04:33.578Z,23.20
2022-09-11T05:07:02.642Z,23.77
2022-09-11T05:09:31.261Z,24.03
2022-09-11T05:11:59.720Z,28.37
2022-09-11T05:14:28.288Z,25.10
2022-09-11T05:16:56.876Z,31.13
2022-09-11T05:19:25.592Z,25.80
2022-09-11T05:21:55.590Z,26.30
2022-09-11T05:24:24.059Z,24.77
2022-09-11T05:26:52.780Z,30.33
2022-09-11T05:29:21.428Z,33.60
2022-09-11T05:31:49.964Z,27.20
2022-09-11T05:34:18.713Z,28.37
2022-09-11T05:36:47.205Z,29.80
2022-09-11T05:39:17.089Z,28.23
2022-09-11T05:41:45.520Z,29.90
2022-09-11T05:44:14.006Z,31.90
2022-09-11T05:46:42.532Z,32.10
2022-09-11T05:49:10.983Z,29.10
2022-09-11T05:51:41.629Z,26.80
2022-09-11T05:54:10.153Z,30.40
2022-09-11T05:56:40.408Z,27.17
2022-09-11T05:59:13.992Z,29.50
2022-09-11T06:01:42.995Z,24.13
2022-09-11T06:04:12.240Z,28.40
2022-09-11T06:06:40.689Z,28.77
2022-09-11T06:09:09.225Z,27.67
2022-09-11T06:11:39.203Z,28.37
2022-09-11T06:14:07.723Z,30.10
2022-09-11T06:16:36.444Z,21.80
2022-09-11T06:19:05.722Z,26.63
2022-09-11T06:21:34.273Z,25.40
2022-09-11T06:24:02.990Z,30.30
2022-09-11T06:26:31.465Z,28.17
2022-09-11T06:29:01.723Z,34.80
2022-09-11T06:31:30.310Z,30.10
2022-09-11T06:33:58.851Z,27.47
2022-09-11T06:36:27.808Z,35.07
2022-09-11T06:38:56.800Z,39.20
2022-09-11T06:41:25.480Z,34.97
2022-09-11T06:43:54.247Z,41.17
2022-09-11T06:46:24.895Z,43.50
2022-09-11T06:48:53.473Z,36.80
2022-09-11T06:51:22.444Z,33.57
2022-09-11T06:53:53.845Z,32.53
2022-09-11T06:56:22.333Z,33.17
2022-09-11T06:58:51.473Z,35.10
2022-09-11T07:01:20.745Z,32.93
2022-09-11T07:03:52.991Z,31.37
2022-09-11T07:06:22.298Z,31.70
2022-09-11T07:08:53.179Z,32.43
2022-09-11T07:11:21.823Z,31.43
2022-09-11T07:13:50.398Z,29.00
2022-09-11T07:16:18.916Z,35.37
2022-09-11T07:18:49.148Z,32.20
2022-09-11T07:21:18.914Z,28.90
2022-09-11T07:23:48.839Z,29.47
2022-09-11T07:26:17.436Z,34.80
2022-09-11T07:28:47.073Z,29.63
2022-09-11T07:31:20.632Z,34.40
2022-09-11T07:33:51.251Z,35.13
2022-09-11T07:36:21.161Z,35.03
2022-09-11T07:38:50.254Z,31.27
2022-09-11T07:41:19.834Z,35.77
2022-09-11T07:43:48.618Z,29.70
2022-09-11T07:46:17.272Z,30.03
2022-09-11T07:48:45.704Z,31.73
2022-09-11T07:51:16.584Z,30.73
2022-09-11T07:53:46.110Z,32.23
2022-09-11T07:56:15.773Z,32.20
2022-09-11T07:58:44.576Z,24.33
2022-09-11T08:01:14.010Z,29.57
2022-09-11T08:03:43.306Z,29.07
2022-09-11T08:06:13.520Z,25.40
2022-09-11T08:08:43.505Z,19.70
2022-09-11T08:11:12.578Z,20.27
2022-09-11T08:13:41.606Z,19.57
2022-09-11T08:16:10.255Z,21.20
2022-09-11T08:18:38.926Z,17.60
2022-09-11T08:21:12.641Z,18.50
2022-09-11T08:23:43.588Z,19.53
2022-09-11T08:26:12.709Z,13.37
2022-09-11T08:28:43.135Z,16.10
2022-09-11T08:31:12.038Z,16.07
2022-09-11T08:33:40.589Z,16.47
2022-09-11T08:36:10.724Z,14.93
2022-09-11T08:38:39.477Z,18.60
2022-09-11T08:41:15.378Z,16.70
2022-09-11T08:43:47.227Z,15.20
2022-09-11T08:46:16.985Z,19.03
2022-09-11T08:48:48.203Z,16.17
2022-09-11T08:51:17.594Z,15.30
2022-09-11T08:53:46.370Z,14.90
2022-09-11T08:56:18.595Z,12.00
2022-09-11T08:58:52.446Z,17.07
2022-09-11T09:01:24.788Z,13.10
2022-09-11T09:04:02.729Z,16.30
2022-09-11T09:06:50.486Z,12.63
2022-09-11T09:09:22.068Z,11.27
2022-09-11T09:11:54.039Z,13.87
2022-09-11T09:14:40.407Z,14.33
2022-09-11T09:17:11.756Z,12.53
2022-09-11T09:19:42.562Z,15.23
2022-09-11T09:22:13.979Z,9.10
2022-09-11T09:24:43.994Z,15.17
2022-09-11T09:27:17.174Z,11.43
2022-09-11T09:29:47.193Z,12.50
2022-09-11T09:32:17.033Z,11.43
2022-09-11T09:34:46.031Z,11.83
2022-09-11T09:37:16.228Z,15.70
2022-09-11T09:39:44.777Z,13.90
2022-09-11T09:42:41.910Z,14.43
2022-09-11T09:45:20.214Z,12.27
2022-09-11T09:47:49.030Z,13.90
2022-09-11T09:50:19.687Z,12.67
2022-09-11T09:52:48.916Z,10.93
2022-09-11T09:55:18.603Z,11.50
2022-09-11T09:57:48.716Z,14.53
2022-09-11T10:00:19.031Z,11.00
2022-09-11T10:02:49.095Z,9.33
2022-09-11T10:05:25.144Z,10.60
2022-09-11T10:07:55.317Z,11.23
2022-09-11T10:10:28.889Z,10.40
2022-09-11T10:13:18.235Z,10.00
2022-09-11T10:15:48.792Z,11.37
2022-09-11T10:18:37.683Z,9.83
2022-09-11T10:21:26.210Z,10.47
2022-09-11T10:23:55.780Z,8.53
2022-09-11T10:26:27.539Z,8.30
2022-09-11T10:28:59.744Z,9.93
2022-09-11T10:31:30.185Z,13.90
2022-09-11T10:33:59.400Z,9.70
2022-09-11T10:36:29.148Z,10.30
2022-09-11T10:38:58.112Z,7.40
2022-09-11T10:41:27.556Z,9.30
2022-09-11T10:44:00.511Z,6.40
2022-09-11T10:46:39.585Z,9.77
2022-09-11T10:49:18.198Z,9.00
2022-09-11T10:52:00.421Z,11.00
2022-09-11T10:54:38.491Z,8.67
2022-09-11T10:57:18.452Z,9.63
2022-09-11T10:59:56.374Z,10.70
2022-09-11T11:02:30.361Z,11.80
2022-09-11T11:04:58.972Z,10.40
2022-09-11T11:07:36.288Z,12.37
2022-09-11T11:10:10.576Z,7.07
2022-09-11T11:12:45.768Z,9.40
2022-09-11T11:15:43.343Z,8.73
2022-09-11T11:18:23.990Z,8.20
2022-09-11T11:20:57.747Z,9.70
2022-09-11T11:23:38.961Z,8.63
2022-09-11T11:26:15.858Z,6.80
2022-09-11T11:28:53.654Z,8.20
2022-09-11T11:31:33.672Z,5.93
2022-09-11T11:34:13.023Z,12.23
2022-09-11T11:36:42.994Z,6.07
2022-09-11T11:39:18.512Z,6.67
2022-09-11T11:41:47.879Z,5.63
2022-09-11T11:44:18.617Z,6.60
2022-09-11T11:46:49.893Z,4.90
2022-09-11T11:49:20.024Z,5.90
2022-09-11T11:51:51.012Z,7.13
2022-09-11T11:54:21.360Z,7.63
2022-09-11T11:56:51.811Z,7.57
2022-09-11T11:59:24.056Z,10.77
2022-09-11T12:01:56.019Z,6.93
2022-09-11T12:04:33.243Z,7.90
2022-09-11T12:07:02.576Z,8.73
2022-09-11T12:09:33.853Z,8.50
2022-09-11T12:12:05.923Z,8.57
2022-09-11T12:14:34.834Z,10.63
2022-09-11T12:20:30.825Z,9.07
2022-09-11T12:22:59.373Z,6.53
2022-09-11T12:25:51.112Z,6.43
2022-09-11T12:28:24.091Z,6.87
2022-09-11T12:30:59.296Z,7.27
2022-09-11T12:33:58.621Z,6.63
2022-09-11T12:36:49.584Z,6.43
2022-09-11T12:39:24.887Z,6.13
2022-09-11T12:41:53.564Z,7.30
2022-09-11T12:44:32.462Z,5.93
2022-09-11T12:47:11.972Z,6.13
2022-09-11T12:49:40.880Z,4.93
2022-09-11T12:52:24.849Z,6.13
2022-09-11T12:54:53.443Z,5.43
2022-09-11T12:57:23.257Z,5.70
2022-09-11T12:59:54.115Z,5.33
2022-09-11T13:02:27.169Z,4.90
2022-09-11T13:04:55.895Z,4.97
2022-09-11T13:07:29.114Z,4.90
2022-09-11T13:10:08.026Z,5.27
2022-09-11T13:12:50.930Z,4.97
2022-09-11T13:15:36.357Z,5.17
2022-09-11T13:18:29.794Z,4.90
2022-09-11T13:21:04.687Z,4.90
2022-09-11T13:23:34.588Z,4.77
2022-09-11T13:26:03.139Z,4.70
2022-09-11T13:28:32.231Z,4.00
2022-09-11T13:31:02.792Z,3.60
2022-09-11T13:33:32.177Z,6.30
2022-09-11T13:36:02.502Z,4.40
2022-09-11T13:38:34.411Z,3.80
2022-09-11T13:41:03.946Z,4.37
2022-09-11T13:43:35.753Z,5.57
2022-09-11T13:46:19.580Z,3.80
2022-09-11T13:48:49.371Z,3.47
2022-09-11T13:51:18.851Z,4.00
2022-09-11T13:53:51.587Z,4.20
2022-09-11T13:56:35.238Z,5.43
2022-09-11T13:59:38.405Z,4.50
2022-09-11T14:02:08.535Z,3.60
2022-09-11T14:04:41.032Z,4.00
2022-09-11T14:07:16.852Z,3.77
2022-09-11T14:09:50.327Z,4.70
2022-09-11T14:12:20.275Z,3.70
2022-09-11T14:14:52.117Z,3.90
2022-09-11T14:17:20.888Z,4.17
2022-09-11T14:19:50.972Z,4.17
2022-09-11T14:22:25.528Z,3.53
2022-09-11T14:24:57.860Z,2.90
2022-09-11T14:27:37.689Z,2.40
2022-09-11T14:30:24.653Z,2.83
2022-09-11T14:33:23.033Z,2.60
2022-09-11T14:35:51.702Z,2.50
2022-09-11T14:38:29.623Z,2.50
2022-09-11T14:41:00.081Z,3.57
2022-09-11T14:43:32.684Z,2.10
2022-09-11T14:46:01.978Z,2.00
2022-09-11T14:48:30.970Z,2.03
2022-09-11T14:51:00.322Z,2.90
2022-09-11T14:53:30.376Z,2.10
2022-09-11T14:56:00.641Z,1.87
2022-09-11T14:58:29.477Z,1.87
2022-09-11T15:00:58.017Z,1.93
2022-09-11T15:03:26.610Z,3.60
2022-09-11T15:05:56.725Z,2.73
2022-09-11T15:08:25.610Z,2.20
2022-09-11T15:10:54.491Z,3.33
2022-09-11T15:13:24.342Z,3.63
2022-09-11T15:15:52.864Z,3.00
2022-09-11T15:18:21.418Z,4.17
2022-09-11T15:20:49.856Z,5.00
2022-09-11T15:23:18.314Z,3.20
2022-09-11T15:25:46.749Z,2.80
2022-09-11T15:28:15.214Z,4.23
2022-09-11T15:30:45.061Z,3.47
2022-09-11T15:33:13.463Z,3.60
2022-09-11T15:35:41.931Z,3.23
2022-09-11T15:38:10.534Z,3.83
2022-09-11T15:40:39.994Z,4.40
2022-09-11T15:43:08.401Z,2.83
2022-09-11T15:45:37.967Z,2.33
2022-09-11T15:48:07.771Z,4.50
2022-09-11T15:50:36.428Z,5.57
2022-09-11T15:53:04.868Z,4.17
2022-09-11T15:55:33.342Z,3.70
2022-09-11T15:58:01.841Z,6.00
2022-09-11T16:00:30.433Z,3.67
2022-09-11T16:02:59.207Z,3.73
2022-09-11T16:05:29.792Z,3.40
2022-09-11T16:07:58.466Z,4.10
2022-09-11T16:10:27.780Z,4.33
2022-09-11T16:12:58.812Z,5.50
2022-09-11T16:15:27.640Z,7.03
2022-09-11T16:17:56.127Z,3.80
2022-09-11T16:20:25.016Z,4.23
2022-09-11T16:22:55.093Z,4.87
2022-09-11T16:25:23.617Z,4.73
2022-09-11T16:27:52.988Z,5.17
2022-09-11T16:30:42.002Z,4.40
2022-09-11T16:33:10.302Z,7.97
2022-09-11T16:35:39.263Z,5.53
2022-09-11T16:38:09.135Z,5.03
2022-09-11T16:40:37.760Z,7.00
2022-09-11T16:43:06.508Z,6.60
2022-09-11T16:45:34.975Z,9.00
2022-09-11T16:48:04.956Z,9.50
2022-09-11T16:50:33.586Z,8.53
2022-09-11T16:53:02.080Z,11.60
2022-09-11T16:55:31.884Z,14.30
2022-09-11T16:58:00.325Z,12.80
2022-09-11T17:00:28.986Z,17.50
2022-09-11T17:02:57.439Z,14.23
2022-09-11T17:05:26.117Z,18.60
2022-09-11T17:07:55.162Z,16.23
2022-09-11T17:10:23.664Z,16.37
2022-09-11T17:12:54.928Z,9.93
2022-09-11T17:15:23.796Z,7.87
2022-09-11T17:17:54.737Z,7.73
2022-09-11T17:20:23.271Z,7.50
2022-09-11T17:22:56.121Z,8.27
2022-09-11T17:25:26.527Z,10.87
2022-09-11T17:27:56.432Z,7.23
2022-09-11T17:30:24.916Z,8.33
2022-09-11T17:32:53.465Z,6.37
2022-09-11T17:35:21.871Z,6.43
2022-09-11T17:37:50.730Z,9.43
2022-09-11T17:40:19.439Z,6.97
2022-09-11T17:42:48.723Z,7.80
2022-09-11T17:45:18.944Z,6.10
2022-09-11T17:47:47.364Z,10.30
2022-09-11T17:50:15.839Z,6.77
2022-09-11T17:52:44.346Z,6.77
2022-09-11T17:55:13.219Z,17.00
2022-09-11T17:57:44.313Z,9.70
2022-09-11T18:00:14.068Z,8.00
2022-09-11T18:02:44.538Z,7.53
2022-09-11T18:05:13.000Z,6.30
2022-09-11T18:07:42.197Z,14.90
2022-09-11T18:10:11.107Z,7.90
2022-09-11T18:12:39.563Z,8.13
2022-09-11T18:15:09.343Z,6.93
2022-09-11T18:17:38.130Z,8.20
2022-09-11T18:20:09.670Z,8.50
2022-09-11T18:22:39.907Z,6.40
2022-09-11T18:25:09.833Z,6.80
2022-09-11T18:27:39.818Z,7.73
2022-09-11T18:30:09.906Z,6.07
2022-09-11T18:32:39.982Z,5.20
2022-09-11T18:35:10.956Z,6.43
2022-09-11T18:37:39.745Z,5.80
2022-09-11T18:40:09.038Z,5.77
2022-09-11T18:42:37.577Z,5.23
2022-09-11T18:45:06.992Z,5.00
2022-09-11T18:47:35.431Z,8.07
2022-09-11T18:50:04.146Z,6.40
2022-09-11T18:52:34.011Z,5.97
2022-09-11T18:55:03.508Z,5.90
2022-09-11T18:57:36.326Z,7.17
2022-09-11T19:00:08.118Z,5.73
2022-09-11T19:02:37.242Z,6.30
2022-09-11T19:05:06.320Z,6.50
2022-09-11T19:07:36.210Z,7.50
2022-09-11T19:10:05.171Z,6.90
2022-09-11T19:12:33.640Z,6.43
2022-09-11T19:15:02.107Z,9.10
2022-09-11T19:17:31.335Z,7.10
2022-09-11T19:20:00.478Z,9.97
2022-09-11T19:22:31.257Z,9.17
2022-09-11T19:25:01.069Z,8.60
2022-09-11T19:27:31.691Z,10.03
2022-09-11T19:30:00.605Z,8.40
2022-09-11T19:32:29.316Z,9.17
2022-09-11T19:34:57.759Z,9.23
2022-09-11T19:37:27.123Z,10.03
2022-09-11T19:39:57.209Z,10.30
2022-09-11T19:42:27.330Z,9.10
2022-09-11T19:44:56.377Z,9.00
2022-09-11T19:47:26.437Z,9.03
2022-09-11T19:49:55.375Z,9.70
2022-09-11T19:52:24.095Z,10.07
2022-09-11T19:54:52.581Z,9.27
2022-09-11T19:57:21.000Z,9.73
2022-09-11T19:59:50.837Z,8.43
2022-09-11T20:02:19.385Z,7.50
2022-09-11T20:04:47.875Z,11.47
2022-09-11T20:07:16.334Z,11.87
2022-09-11T20:09:44.747Z,8.13
2022-09-11T20:12:13.185Z,9.30
2022-09-11T20:14:42.789Z,9.17
2022-09-11T20:17:13.138Z,8.77
2022-09-11T20:19:44.687Z,9.93
2022-09-11T20:22:13.199Z,10.73
2022-09-11T20:24:41.692Z,7.80
2022-09-11T20:27:10.199Z,9.23
2022-09-11T20:29:40.049Z,9.80
2022-09-11T20:32:08.580Z,8.20
2022-09-11T20:34:38.712Z,9.07
2022-09-11T20:37:10.163Z,8.17
2022-09-11T20:39:39.929Z,10.67
2022-09-11T20:42:08.477Z,9.60
2022-09-11T20:44:37.356Z,9.50
2022-09-11T20:47:05.950Z,10.73
2022-09-11T20:49:34.386Z,10.37
2022-09-11T20:52:04.668Z,12.63
2022-09-11T20:54:33.105Z,11.07
2022-09-11T20:57:01.551Z,9.83
2022-09-11T20:59:30.016Z,10.10
2022-09-11T21:02:00.483Z,10.07
2022-09-11T21:04:29.189Z,9.87
2022-09-11T21:06:57.660Z,10.10
2022-09-11T21:09:27.509Z,13.00
2022-09-11T21:11:55.924Z,10.13
2022-09-11T21:14:24.386Z,16.00
2022-09-11T21:16:53.996Z,11.40
2022-09-11T21:19:22.512Z,12.10
2022-09-11T21:21:51.035Z,9.60
2022-09-11T21:24:19.564Z,9.03
2022-09-11T21:26:49.301Z,9.50
2022-09-11T21:29:17.749Z,9.57
2022-09-11T21:31:46.212Z,9.67
2022-09-11T21:34:14.690Z,9.77
2022-09-11T21:36:43.471Z,9.50
2022-09-11T21:39:12.328Z,9.37
2022-09-11T21:41:40.831Z,8.67
2022-09-11T21:44:10.688Z,9.47
2022-09-11T21:46:39.166Z,9.80
2022-09-11T21:49:07.703Z,11.93
2022-09-11T21:51:36.188Z,9.87
2022-09-11T21:54:04.924Z,11.43
2022-09-11T21:56:34.077Z,10.80
2022-09-11T21:59:02.604Z,11.50
2022-09-11T22:01:32.816Z,10.47
2022-09-11T22:04:01.396Z,9.83
2022-09-11T22:06:30.147Z,11.20
2022-09-11T22:08:58.625Z,9.83
2022-09-11T22:11:27.077Z,9.50
2022-09-11T22:13:55.579Z,9.60
2022-09-11T22:16:24.168Z,8.50
2022-09-11T22:18:54.723Z,9.57
2022-09-11T22:21:23.337Z,8.93
2022-09-11T22:23:52.390Z,9.80
2022-09-11T22:26:21.527Z,7.73
2022-09-11T22:28:50.004Z,8.63
2022-09-11T22:31:19.967Z,9.90
2022-09-11T22:33:48.497Z,7.93
2022-09-11T22:36:19.636Z,9.23
2022-09-11T22:38:48.588Z,9.70
2022-09-11T22:41:17.091Z,11.13
2022-09-11T22:43:47.410Z,11.27
2022-09-11T22:46:16.119Z,8.40
2022-09-11T22:48:44.767Z,8.43
2022-09-11T22:51:13.531Z,8.83
2022-09-11T22:53:43.430Z,8.60
2022-09-11T22:56:13.787Z,8.77
2022-09-11T22:58:42.340Z,10.80
2022-09-11T23:01:12.121Z,7.87
2022-09-11T23:03:40.624Z,8.20
2022-09-11T23:06:28.324Z,8.60
2022-09-11T23:09:00.405Z,9.47
2022-09-11T23:11:29.672Z,8.30
2022-09-11T23:13:58.757Z,7.40
2022-09-11T23:16:28.648Z,7.60
2022-09-11T23:18:57.596Z,5.17
2022-09-11T23:21:26.226Z,5.97
2022-09-11T23:23:55.525Z,5.17
2022-09-11T23:26:25.591Z,5.33
2022-09-11T23:28:54.427Z,6.00
2022-09-11T23:31:25.125Z,5.40
2022-09-11T23:33:54.265Z,5.67
2022-09-11T23:36:22.838Z,5.63
2022-09-11T23:38:51.535Z,5.97
2022-09-11T23:41:20.017Z,5.30
2022-09-11T23:43:49.865Z,5.43
2022-09-11T23:46:18.459Z,4.83
2022-09-11T23:48:47.109Z,4.30
2022-09-11T23:51:15.933Z,4.33
2022-09-11T23:53:45.170Z,7.40
2022-09-11T23:56:14.418Z,4.27
2022-09-11T23:58:43.854Z,3.90
